Time;durP1;ratioP1;P1;durP2;ratioP2;P2;SDS_P1;SDS_P2;PMS_P1;PMS_P2;Temp;Humidity;BMP_temperature;BMP_pressure;BME280_temperature;BME280_humidity;BME280_pressure;Samples;Min_cycle;Max_cycle;Signal;HPM_P1;HPM_P2
2021/12/03 00:00:58;;;;;;;1.00;1.00;;;;;;;;;;5079191;28;20207;-66
2021/12/03 00:03:25;;;;;;;1.47;1.33;;;;;;;;;;5069500;28;20227;-66
2021/12/03 00:05:55;;;;;;;0.50;0.50;;;;;;;;;;5070966;28;20267;-66
2021/12/03 00:08:24;;;;;;;0.93;0.87;;;;;;;;;;5084964;28;20510;-66
2021/12/03 00:10:55;;;;;;;1.30;1.30;;;;;;;;;;5084499;28;20223;-66
2021/12/03 00:13:22;;;;;;;1.33;1.23;;;;;;;;;;5070488;28;20248;-66
2021/12/03 00:15:49;;;;;;;0.97;0.97;;;;;;;;;;5084278;28;20199;-66
2021/12/03 00:18:16;;;;;;;0.90;0.90;;;;;;;;;;5085000;28;20673;-66
2021/12/03 00:20:43;;;;;;;1.03;0.77;;;;;;;;;;5085692;28;20259;-66
2021/12/03 00:23:11;;;;;;;0.90;0.90;;;;;;;;;;5085585;28;20218;-66
2021/12/03 00:25:39;;;;;;;1.20;1.20;;;;;;;;;;5085190;28;20206;-66
2021/12/03 00:28:06;;;;;;;0.80;0.80;;;;;;;;;;5071756;28;20203;-66
2021/12/03 00:30:33;;;;;;;1.50;0.90;;;;;;;;;;5084711;28;20613;-66
2021/12/03 00:33:01;;;;;;;0.73;0.73;;;;;;;;;;5068340;28;21079;-66
2021/12/03 00:35:28;;;;;;;0.87;0.87;;;;;;;;;;5079676;28;20274;-66
2021/12/03 00:37:55;;;;;;;0.80;0.80;;;;;;;;;;5081703;28;20202;-66
2021/12/03 00:40:25;;;;;;;0.70;0.70;;;;;;;;;;5086234;28;20207;-66
2021/12/03 00:42:53;;;;;;;1.40;1.30;;;;;;;;;;5085925;28;20312;-66
2021/12/03 00:45:21;;;;;;;1.10;1.00;;;;;;;;;;5079329;28;20704;-66
2021/12/03 00:47:48;;;;;;;0.83;0.83;;;;;;;;;;5071452;28;20211;-65
2021/12/03 00:50:17;;;;;;;0.87;0.87;;;;;;;;;;5086078;28;20247;-65
2021/12/03 00:52:44;;;;;;;1.10;1.00;;;;;;;;;;5071014;28;20206;-66
2021/12/03 00:55:11;;;;;;;0.87;0.87;;;;;;;;;;5083300;28;20266;-66
2021/12/03 00:57:39;;;;;;;0.77;0.77;;;;;;;;;;5085523;28;20206;-67
2021/12/03 01:00:10;;;;;;;3.03;1.17;;;;;;;;;;5084684;28;20214;-66
2021/12/03 01:02:37;;;;;;;0.67;0.67;;;;;;;;;;5084264;28;20632;-66
2021/12/03 01:05:04;;;;;;;0.93;0.93;;;;;;;;;;5085471;28;20206;-66
2021/12/03 01:07:31;;;;;;;0.70;0.70;;;;;;;;;;5083931;28;20210;-66
2021/12/03 01:09:58;;;;;;;1.07;1.07;;;;;;;;;;5084129;28;20271;-66
2021/12/03 01:12:25;;;;;;;1.00;1.00;;;;;;;;;;5069241;28;20198;-66
2021/12/03 01:14:52;;;;;;;0.60;0.60;;;;;;;;;;5068825;28;20210;-66
2021/12/03 01:17:22;;;;;;;0.83;0.83;;;;;;;;;;5085077;28;20735;-65
2021/12/03 01:19:49;;;;;;;1.00;1.00;;;;;;;;;;5088825;28;20813;-66
2021/12/03 01:22:16;;;;;;;1.07;1.07;;;;;;;;;;5078956;28;20226;-66
2021/12/03 01:24:43;;;;;;;1.00;1.00;;;;;;;;;;5072040;28;20217;-66
2021/12/03 01:27:10;;;;;;;0.60;0.60;;;;;;;;;;5073243;28;20221;-65
2021/12/03 01:29:37;;;;;;;0.70;0.70;;;;;;;;;;5071937;28;20204;-66
2021/12/03 01:32:05;;;;;;;1.33;0.87;;;;;;;;;;5082837;28;20638;-66
2021/12/03 01:34:33;;;;;;;0.80;0.80;;;;;;;;;;5090014;28;20286;-66
2021/12/03 01:37:00;;;;;;;0.70;0.70;;;;;;;;;;5083065;28;20261;-66
2021/12/03 01:39:27;;;;;;;0.90;0.90;;;;;;;;;;5090681;28;20621;-65
2021/12/03 01:41:54;;;;;;;1.20;1.10;;;;;;;;;;5089812;28;20736;-65
2021/12/03 01:44:21;;;;;;;1.10;1.10;;;;;;;;;;5090037;28;20464;-66
2021/12/03 01:46:48;;;;;;;0.63;0.53;;;;;;;;;;5088216;28;20205;-66
2021/12/03 01:49:15;;;;;;;0.70;0.70;;;;;;;;;;5088878;28;20221;-65
2021/12/03 01:51:44;;;;;;;0.50;0.50;;;;;;;;;;5074843;28;20204;-66
2021/12/03 01:54:11;;;;;;;0.70;0.63;;;;;;;;;;5072927;28;20209;-65
2021/12/03 01:56:39;;;;;;;1.00;0.90;;;;;;;;;;5091192;28;20269;-66
2021/12/03 01:59:06;;;;;;;1.03;1.03;;;;;;;;;;5091485;28;20304;-66
2021/12/03 02:01:34;;;;;;;1.70;1.17;;;;;;;;;;5091008;28;20290;-66
2021/12/03 02:04:01;;;;;;;0.93;0.93;;;;;;;;;;5090232;28;20250;-65
2021/12/03 02:06:29;;;;;;;1.20;1.07;;;;;;;;;;5089082;28;20676;-66
2021/12/03 02:08:58;;;;;;;0.50;0.50;;;;;;;;;;5073432;28;20247;-67
2021/12/03 02:11:25;;;;;;;1.47;1.17;;;;;;;;;;5071452;28;20691;-66
2021/12/03 02:13:52;;;;;;;1.10;1.10;;;;;;;;;;5071074;28;20242;-66
2021/12/03 02:16:20;;;;;;;1.00;1.00;;;;;;;;;;5071502;28;20205;-66
2021/12/03 02:18:47;;;;;;;1.20;1.10;;;;;;;;;;5080468;28;20270;-67
2021/12/03 02:21:16;;;;;;;2.03;1.77;;;;;;;;;;5082561;28;20209;-66
2021/12/03 02:23:43;;;;;;;1.93;1.53;;;;;;;;;;5079295;28;20227;-66
2021/12/03 02:26:11;;;;;;;1.53;1.43;;;;;;;;;;5089310;28;20686;-67
2021/12/03 02:28:39;;;;;;;1.57;1.30;;;;;;;;;;5071038;28;20204;-67
2021/12/03 02:31:07;;;;;;;3.17;1.67;;;;;;;;;;5075930;28;20205;-66
2021/12/03 02:33:34;;;;;;;2.43;1.50;;;;;;;;;;5067976;28;20220;-65
2021/12/03 02:36:01;;;;;;;3.03;1.43;;;;;;;;;;5074991;28;20294;-65
2021/12/03 02:38:29;;;;;;;3.67;2.20;;;;;;;;;;5084961;28;20211;-65
2021/12/03 02:40:57;;;;;;;2.10;1.93;;;;;;;;;;5085743;28;20219;-65
2021/12/03 02:43:25;;;;;;;1.57;1.47;;;;;;;;;;5077692;28;20295;-66
2021/12/03 02:45:53;;;;;;;2.67;1.87;;;;;;;;;;5071500;28;20286;-66
2021/12/03 02:48:20;;;;;;;1.83;1.73;;;;;;;;;;5070685;28;20209;-66
2021/12/03 02:50:48;;;;;;;1.90;1.80;;;;;;;;;;5077770;28;20790;-65
2021/12/03 02:53:16;;;;;;;1.80;1.37;;;;;;;;;;5084847;28;20201;-65
2021/12/03 02:55:45;;;;;;;3.17;1.97;;;;;;;;;;5074886;28;20208;-68
2021/12/03 02:58:12;;;;;;;2.03;1.53;;;;;;;;;;5080361;28;20225;-66
2021/12/03 03:00:41;;;;;;;1.23;1.20;;;;;;;;;;5070755;28;20208;-65
2021/12/03 03:03:08;;;;;;;3.17;1.57;;;;;;;;;;5071156;28;20225;-66
2021/12/03 03:05:35;;;;;;;2.70;2.33;;;;;;;;;;5086038;28;20367;-68
2021/12/03 03:08:02;;;;;;;2.83;2.13;;;;;;;;;;5088056;28;20204;-66
2021/12/03 03:10:31;;;;;;;1.53;1.43;;;;;;;;;;5074452;28;20744;-66
2021/12/03 03:13:01;;;;;;;2.00;1.70;;;;;;;;;;5071114;28;20216;-66
2021/12/03 03:15:28;;;;;;;1.67;1.40;;;;;;;;;;5073820;28;20213;-64
2021/12/03 03:17:57;;;;;;;1.93;1.53;;;;;;;;;;5087743;28;20203;-65
2021/12/03 03:20:24;;;;;;;1.93;1.70;;;;;;;;;;5070465;28;20205;-66
2021/12/03 03:22:51;;;;;;;0.97;0.97;;;;;;;;;;5082954;28;20236;-65
2021/12/03 03:25:19;;;;;;;2.37;1.50;;;;;;;;;;5070355;28;20712;-66
2021/12/03 03:27:47;;;;;;;1.77;1.63;;;;;;;;;;5085320;28;20281;-66
2021/12/03 03:30:18;;;;;;;1.57;1.47;;;;;;;;;;5086610;28;20250;-65
2021/12/03 03:32:45;;;;;;;1.37;1.20;;;;;;;;;;5086755;28;20222;-65
2021/12/03 03:35:15;;;;;;;1.60;1.50;;;;;;;;;;5072945;28;20259;-65
2021/12/03 03:37:42;;;;;;;5.13;1.60;;;;;;;;;;5082299;28;20208;-68
2021/12/03 03:40:11;;;;;;;0.73;0.73;;;;;;;;;;5069647;28;20206;-65
2021/12/03 03:42:38;;;;;;;1.17;0.93;;;;;;;;;;5083697;28;20610;-65
2021/12/03 03:45:07;;;;;;;1.63;1.53;;;;;;;;;;5087755;28;20284;-69
2021/12/03 03:47:35;;;;;;;1.03;1.03;;;;;;;;;;5087948;28;20213;-65
2021/12/03 03:50:03;;;;;;;1.03;1.03;;;;;;;;;;5076816;28;20666;-65
2021/12/03 03:52:30;;;;;;;2.10;1.20;;;;;;;;;;5082230;28;20299;-66
2021/12/03 03:54:57;;;;;;;3.00;1.37;;;;;;;;;;5088344;28;20643;-65
2021/12/03 03:57:24;;;;;;;1.10;1.10;;;;;;;;;;5087561;28;20208;-65
2021/12/03 03:59:51;;;;;;;1.00;0.90;;;;;;;;;;5085139;28;20209;-65
2021/12/03 04:02:18;;;;;;;1.20;1.10;;;;;;;;;;5069152;28;20289;-65
2021/12/03 04:04:47;;;;;;;0.77;0.77;;;;;;;;;;5073313;28;20221;-66
2021/12/03 04:07:14;;;;;;;1.30;1.20;;;;;;;;;;5087189;28;20269;-66
2021/12/03 04:09:41;;;;;;;1.70;1.57;;;;;;;;;;5080262;28;20203;-66
2021/12/03 04:12:09;;;;;;;1.37;1.17;;;;;;;;;;5069059;28;20212;-66
2021/12/03 04:14:36;;;;;;;1.30;1.20;;;;;;;;;;5073881;28;20208;-66
2021/12/03 04:17:03;;;;;;;1.10;1.00;;;;;;;;;;5079059;28;20208;-66
2021/12/03 04:19:30;;;;;;;1.57;1.13;;;;;;;;;;5087761;28;20208;-65
2021/12/03 04:21:59;;;;;;;0.70;0.70;;;;;;;;;;5086279;28;20233;-67
2021/12/03 04:24:26;;;;;;;0.90;0.90;;;;;;;;;;5069368;28;20674;-67
2021/12/03 04:26:53;;;;;;;1.10;1.00;;;;;;;;;;5078397;28;20228;-66
2021/12/03 04:29:20;;;;;;;0.87;0.87;;;;;;;;;;5076550;28;20233;-66
2021/12/03 04:31:47;;;;;;;1.50;1.30;;;;;;;;;;5069105;28;20802;-66
2021/12/03 04:34:14;;;;;;;1.10;1.10;;;;;;;;;;5068843;28;20271;-66
2021/12/03 04:36:41;;;;;;;1.33;1.23;;;;;;;;;;5069916;28;20205;-66
2021/12/03 04:39:12;;;;;;;0.97;0.97;;;;;;;;;;5068702;28;20204;-66
2021/12/03 04:41:39;;;;;;;0.80;0.80;;;;;;;;;;5069880;28;20210;-66
2021/12/03 04:44:06;;;;;;;1.67;1.57;;;;;;;;;;5072207;28;20235;-66
2021/12/03 04:46:33;;;;;;;0.70;0.70;;;;;;;;;;5085959;28;20617;-66
2021/12/03 04:49:00;;;;;;;0.80;0.80;;;;;;;;;;5087316;28;20230;-66
2021/12/03 04:51:27;;;;;;;1.10;1.10;;;;;;;;;;5087327;28;20202;-66
2021/12/03 04:53:55;;;;;;;0.70;0.70;;;;;;;;;;5091636;28;20276;-66
2021/12/03 04:56:23;;;;;;;0.90;0.90;;;;;;;;;;5074527;28;20271;-66
2021/12/03 04:58:50;;;;;;;1.10;1.03;;;;;;;;;;5071971;28;20199;-66
2021/12/03 05:01:17;;;;;;;0.83;0.80;;;;;;;;;;5075155;28;20260;-65
2021/12/03 05:03:44;;;;;;;3.83;0.90;;;;;;;;;;5077434;28;20231;-65
2021/12/03 05:06:15;;;;;;;1.00;1.00;;;;;;;;;;5091099;28;20214;-66
2021/12/03 05:08:42;;;;;;;0.60;0.60;;;;;;;;;;5088113;28;20214;-65
2021/12/03 05:11:10;;;;;;;0.80;0.73;;;;;;;;;;5073456;28;20623;-66
2021/12/03 05:13:38;;;;;;;1.03;0.90;;;;;;;;;;5079840;28;20611;-65
2021/12/03 05:16:06;;;;;;;0.60;0.60;;;;;;;;;;5087781;28;20208;-68
2021/12/03 05:18:34;;;;;;;4.50;0.90;;;;;;;;;;5090544;28;20222;-66
2021/12/03 05:21:02;;;;;;;0.53;0.53;;;;;;;;;;5076073;28;20294;-66
2021/12/03 05:23:30;;;;;;;1.20;1.07;;;;;;;;;;5072247;28;20231;-66
2021/12/03 05:25:57;;;;;;;1.37;0.90;;;;;;;;;;5072402;28;20280;-66
2021/12/03 05:28:24;;;;;;;0.40;0.40;;;;;;;;;;5076576;28;20199;-66
2021/12/03 05:30:53;;;;;;;3.30;0.73;;;;;;;;;;5076866;28;20206;-66
2021/12/03 05:33:20;;;;;;;0.73;0.43;;;;;;;;;;5082400;28;20225;-66
2021/12/03 05:35:47;;;;;;;0.87;0.87;;;;;;;;;;5089288;28;20283;-65
2021/12/03 05:38:14;;;;;;;2.23;1.03;;;;;;;;;;5091827;28;20206;-66
2021/12/03 05:40:42;;;;;;;1.70;0.97;;;;;;;;;;5074565;28;20257;-65
2021/12/03 05:43:09;;;;;;;0.37;0.37;;;;;;;;;;5071600;28;20203;-66
2021/12/03 05:45:37;;;;;;;0.90;0.90;;;;;;;;;;5087822;28;20206;-66
2021/12/03 05:48:06;;;;;;;1.13;1.10;;;;;;;;;;5085242;28;20203;-66
2021/12/03 05:50:34;;;;;;;0.60;0.57;;;;;;;;;;5085738;28;20285;-66
2021/12/03 05:53:01;;;;;;;0.70;0.70;;;;;;;;;;5085098;28;20217;-65
2021/12/03 05:55:28;;;;;;;0.60;0.60;;;;;;;;;;5088011;28;20201;-66
2021/12/03 05:57:55;;;;;;;0.97;0.97;;;;;;;;;;5078403;28;20203;-67
2021/12/03 06:00:24;;;;;;;0.40;0.40;;;;;;;;;;5078910;28;20428;-67
2021/12/03 06:02:52;;;;;;;3.20;0.60;;;;;;;;;;5081025;28;20513;-67
2021/12/03 06:05:20;;;;;;;2.47;0.77;;;;;;;;;;5079334;28;20223;-66
2021/12/03 06:07:47;;;;;;;1.63;1.23;;;;;;;;;;5082729;28;20194;-66
2021/12/03 06:10:14;;;;;;;1.03;0.90;;;;;;;;;;5090257;28;20669;-67
2021/12/03 06:12:41;;;;;;;1.93;1.27;;;;;;;;;;5087664;28;20220;-67
2021/12/03 06:15:09;;;;;;;2.40;0.83;;;;;;;;;;5088431;28;20682;-66
2021/12/03 06:17:36;;;;;;;0.97;0.93;;;;;;;;;;5075800;28;20205;-67
2021/12/03 06:20:03;;;;;;;1.40;1.00;;;;;;;;;;5080298;28;20206;-67
2021/12/03 06:22:31;;;;;;;0.87;0.87;;;;;;;;;;5076918;28;20214;-67
2021/12/03 06:25:00;;;;;;;1.13;1.00;;;;;;;;;;5070150;28;20234;-66
2021/12/03 06:27:29;;;;;;;0.73;0.73;;;;;;;;;;5080140;28;20206;-66
2021/12/03 06:29:56;;;;;;;0.60;0.60;;;;;;;;;;5076035;28;20219;-66
2021/12/03 06:32:24;;;;;;;0.77;0.77;;;;;;;;;;5085178;28;20209;-67
2021/12/03 06:34:51;;;;;;;1.90;1.13;;;;;;;;;;5088866;28;20213;-67
2021/12/03 06:37:18;;;;;;;0.93;0.93;;;;;;;;;;5078339;28;20266;-66
2021/12/03 06:39:46;;;;;;;0.57;0.57;;;;;;;;;;5078297;28;20197;-66
2021/12/03 06:42:13;;;;;;;0.77;0.70;;;;;;;;;;5089961;28;20220;-67
2021/12/03 06:44:40;;;;;;;0.70;0.70;;;;;;;;;;5041454;28;1024704;-67
2021/12/03 06:47:08;;;;;;;1.13;1.13;;;;;;;;;;5089172;28;20264;-64
2021/12/03 06:49:35;;;;;;;0.73;0.73;;;;;;;;;;5074556;28;20622;-68
2021/12/03 06:52:04;;;;;;;1.63;0.90;;;;;;;;;;5070749;28;20220;-68
2021/12/03 06:54:51;;;;;;;1.83;1.40;;;;;;;;;;5086844;28;20210;-68
2021/12/03 06:57:20;;;;;;;1.50;1.40;;;;;;;;;;5087940;28;20213;-68
2021/12/03 06:59:47;;;;;;;1.07;1.07;;;;;;;;;;5070756;28;20288;-68
2021/12/03 07:02:14;;;;;;;1.10;0.93;;;;;;;;;;5070576;28;20249;-67
2021/12/03 07:04:42;;;;;;;1.57;0.80;;;;;;;;;;5078189;28;20624;-71
2021/12/03 07:07:09;;;;;;;2.33;1.17;;;;;;;;;;5090193;28;20210;-67
2021/12/03 07:09:36;;;;;;;1.47;0.97;;;;;;;;;;5090407;28;20214;-67
2021/12/03 07:12:04;;;;;;;0.80;0.80;;;;;;;;;;5088227;28;20213;-67
2021/12/03 07:14:33;;;;;;;1.27;1.10;;;;;;;;;;5089514;28;20269;-67
2021/12/03 07:17:05;;;;;;;1.40;1.00;;;;;;;;;;5089816;28;20216;-67
2021/12/03 07:19:32;;;;;;;1.30;0.73;;;;;;;;;;5089362;28;20217;-67
2021/12/03 07:21:59;;;;;;;2.70;1.03;;;;;;;;;;5089688;28;20214;-67
2021/12/03 07:24:26;;;;;;;1.73;1.63;;;;;;;;;;5089693;28;20232;-67
2021/12/03 07:26:53;;;;;;;1.93;1.67;;;;;;;;;;5089644;28;20220;-67
2021/12/03 07:29:20;;;;;;;0.80;0.80;;;;;;;;;;5089835;28;20209;-67
2021/12/03 07:31:48;;;;;;;2.03;1.47;;;;;;;;;;5089723;28;20216;-66
2021/12/03 07:34:16;;;;;;;3.40;1.13;;;;;;;;;;5089287;28;20237;-67
2021/12/03 07:36:43;;;;;;;1.97;1.30;;;;;;;;;;5089613;28;20233;-67
2021/12/03 07:39:10;;;;;;;0.97;0.97;;;;;;;;;;5089591;28;20214;-67
2021/12/03 07:41:40;;;;;;;0.60;0.57;;;;;;;;;;5089469;28;20210;-68
2021/12/03 07:44:08;;;;;;;1.07;1.07;;;;;;;;;;5089063;28;20232;-67
2021/12/03 07:46:35;;;;;;;1.17;1.13;;;;;;;;;;5089475;28;20583;-66
2021/12/03 07:49:04;;;;;;;3.00;1.77;;;;;;;;;;5089455;28;20225;-67
2021/12/03 07:51:31;;;;;;;1.07;1.00;;;;;;;;;;5089346;28;20207;-67
2021/12/03 07:53:58;;;;;;;1.97;1.43;;;;;;;;;;5089395;28;20213;-67
2021/12/03 07:56:25;;;;;;;1.77;1.57;;;;;;;;;;5089271;28;20214;-66
2021/12/03 07:58:52;;;;;;;2.83;1.60;;;;;;;;;;5089473;28;20632;-66
2021/12/03 08:01:19;;;;;;;1.13;1.03;;;;;;;;;;5089166;28;20661;-65
2021/12/03 08:03:46;;;;;;;4.60;1.57;;;;;;;;;;5089317;28;20218;-67
2021/12/03 08:06:15;;;;;;;4.57;1.83;;;;;;;;;;5088999;28;20222;-67
2021/12/03 08:08:42;;;;;;;2.00;1.40;;;;;;;;;;5089204;28;20660;-67
2021/12/03 08:11:09;;;;;;;1.20;1.10;;;;;;;;;;5089079;28;20627;-67
2021/12/03 08:13:36;;;;;;;3.43;1.53;;;;;;;;;;5089074;28;20217;-68
2021/12/03 08:16:04;;;;;;;1.57;1.50;;;;;;;;;;5089122;28;20576;-67
2021/12/03 08:18:31;;;;;;;3.40;1.67;;;;;;;;;;5088984;28;20891;-67
2021/12/03 08:20:58;;;;;;;6.70;1.60;;;;;;;;;;5088825;28;20233;-67
2021/12/03 08:23:27;;;;;;;2.90;1.67;;;;;;;;;;5089032;28;20217;-67
2021/12/03 08:25:54;;;;;;;4.00;1.93;;;;;;;;;;5088698;28;20235;-66
2021/12/03 08:28:21;;;;;;;2.07;1.40;;;;;;;;;;5088944;28;20210;-67
2021/12/03 08:30:48;;;;;;;3.40;1.53;;;;;;;;;;5088741;28;20225;-67
2021/12/03 08:33:15;;;;;;;1.43;1.33;;;;;;;;;;5088689;28;20673;-67
2021/12/03 08:35:42;;;;;;;2.23;1.40;;;;;;;;;;5088464;28;20677;-67
2021/12/03 08:38:09;;;;;;;2.77;1.83;;;;;;;;;;5088736;28;20212;-67
2021/12/03 08:40:37;;;;;;;1.30;1.30;;;;;;;;;;5088533;28;20746;-66
2021/12/03 08:43:05;;;;;;;1.20;1.10;;;;;;;;;;5088540;28;20207;-66
2021/12/03 08:45:34;;;;;;;1.30;1.17;;;;;;;;;;5088628;28;20246;-67
2021/12/03 08:48:02;;;;;;;2.53;1.50;;;;;;;;;;5088614;28;20238;-66
2021/12/03 08:50:34;;;;;;;1.30;1.20;;;;;;;;;;5088450;28;20210;-67
2021/12/03 08:53:19;;;;;;;1.90;1.70;;;;;;;;;;5088604;28;20211;-67
2021/12/03 08:55:48;;;;;;;2.57;1.07;;;;;;;;;;5088464;28;20209;-66
2021/12/03 08:58:16;;;;;;;1.70;1.53;;;;;;;;;;5088494;28;20213;-67
2021/12/03 09:00:44;;;;;;;1.60;1.40;;;;;;;;;;5088603;28;20207;-67
2021/12/03 09:03:11;;;;;;;1.97;1.87;;;;;;;;;;5088702;28;20633;-67
2021/12/03 09:05:39;;;;;;;1.13;1.03;;;;;;;;;;5088021;28;20728;-66
2021/12/03 09:08:06;;;;;;;2.00;1.90;;;;;;;;;;5088499;28;20213;-66
2021/12/03 09:10:33;;;;;;;4.60;1.73;;;;;;;;;;5088444;28;20211;-67
2021/12/03 09:13:02;;;;;;;3.37;1.87;;;;;;;;;;5088517;28;20204;-67
2021/12/03 09:15:35;;;;;;;2.03;1.83;;;;;;;;;;5088374;28;20714;-66
2021/12/03 09:18:17;;;;;;;3.70;1.77;;;;;;;;;;5088430;28;20224;-66
2021/12/03 09:20:54;;;;;;;2.73;2.07;;;;;;;;;;5088453;28;20224;-67
2021/12/03 09:23:27;;;;;;;6.33;2.63;;;;;;;;;;5088358;28;20224;-66
2021/12/03 09:26:03;;;;;;;2.23;2.13;;;;;;;;;;5088066;28;20232;-67
2021/12/03 09:28:32;;;;;;;2.60;2.33;;;;;;;;;;5088247;28;20213;-66
2021/12/03 09:31:00;;;;;;;5.07;2.47;;;;;;;;;;5088083;28;20621;-66
2021/12/03 09:33:28;;;;;;;4.43;2.17;;;;;;;;;;5088251;28;20287;-67
2021/12/03 09:35:58;;;;;;;3.70;2.10;;;;;;;;;;5088518;28;20297;-67
2021/12/03 09:38:28;;;;;;;3.63;2.70;;;;;;;;;;5091921;28;20213;-67
2021/12/03 09:40:55;;;;;;;1.40;1.30;;;;;;;;;;5091619;28;20259;-66
2021/12/03 09:43:22;;;;;;;2.60;2.40;;;;;;;;;;5091539;28;20727;-67
2021/12/03 09:45:59;;;;;;;3.07;2.63;;;;;;;;;;5091746;28;20229;-67
2021/12/03 09:48:39;;;;;;;2.50;2.00;;;;;;;;;;5091581;28;20994;-67
2021/12/03 09:51:06;;;;;;;2.23;2.03;;;;;;;;;;5092211;28;20634;-66
2021/12/03 09:54:02;;;;;;;1.90;1.80;;;;;;;;;;5091653;28;20210;-66
2021/12/03 09:56:31;;;;;;;2.33;1.97;;;;;;;;;;5091410;28;20569;-66
2021/12/03 10:02:08;;;;;;;2.27;2.00;;;;;;;;;;5104705;27;20562;-67
2021/12/03 10:04:51;;;;;;;2.87;1.93;;;;;;;;;;5106628;28;20286;-67
2021/12/03 10:10:43;;;;;;;2.17;1.93;;;;;;;;;;5106378;28;20663;-67
2021/12/03 10:13:14;;;;;;;4.37;1.77;;;;;;;;;;5106326;28;20613;-67
2021/12/03 10:15:49;;;;;;;2.13;1.97;;;;;;;;;;5106343;28;20725;-67
2021/12/03 10:18:31;;;;;;;1.73;1.70;;;;;;;;;;5106456;28;20210;-67
2021/12/03 10:21:06;;;;;;;3.50;2.00;;;;;;;;;;5105440;28;20252;-68
2021/12/03 10:29:32;;;;;;;2.03;1.80;;;;;;;;;;5106063;28;20276;-67
2021/12/03 10:38:13;;;;;;;2.57;2.37;;;;;;;;;;5085528;28;20211;-67
2021/12/03 10:49:07;;;;;;;1.73;1.63;;;;;;;;;;5084899;28;20210;-67
2021/12/03 10:51:50;;;;;;;1.60;1.50;;;;;;;;;;5085258;28;20205;-67
2021/12/03 10:54:31;;;;;;;4.10;2.23;;;;;;;;;;5084957;28;20297;-67
2021/12/03 10:57:10;;;;;;;1.80;1.33;;;;;;;;;;5084969;28;20301;-67
2021/12/03 11:08:23;;;;;;;0.97;0.97;;;;;;;;;;5084839;28;20206;-67
2021/12/03 11:11:27;;;;;;;2.67;1.33;;;;;;;;;;5084559;28;20733;-67
2021/12/03 11:28:43;;;;;;;3.47;1.07;;;;;;;;;;5065622;28;20214;-67
2021/12/03 11:31:23;;;;;;;1.53;1.43;;;;;;;;;;5065374;28;20688;-67
2021/12/03 11:37:13;;;;;;;1.20;1.00;;;;;;;;;;5065463;28;20392;-67
2021/12/03 11:39:56;;;;;;;1.03;1.03;;;;;;;;;;5065424;28;20272;-66
2021/12/03 11:46:18;;;;;;;1.00;1.00;;;;;;;;;;5065380;28;20280;-65
2021/12/03 14:07:38;;;;;;;1.70;1.47;;;;;;;;;;5023341;28;20634;-69
2021/12/03 14:41:20;;;;;;;0.70;0.70;;;;;;;;;;5045048;28;20693;-67
2021/12/03 14:44:05;;;;;;;1.13;0.90;;;;;;;;;;5056404;28;20953;-67
2021/12/03 14:46:49;;;;;;;0.80;0.80;;;;;;;;;;5054624;28;20325;-67
2021/12/03 14:49:37;;;;;;;1.10;1.10;;;;;;;;;;5046092;28;20214;-67
2021/12/03 14:52:13;;;;;;;1.17;1.07;;;;;;;;;;5053410;28;20618;-67
2021/12/03 14:54:55;;;;;;;0.80;0.80;;;;;;;;;;5050353;28;20293;-67
2021/12/03 14:57:35;;;;;;;0.80;0.80;;;;;;;;;;5062535;28;20211;-66
2021/12/03 15:00:25;;;;;;;2.43;1.70;;;;;;;;;;5049729;28;20244;-67
2021/12/03 15:03:05;;;;;;;0.70;0.70;;;;;;;;;;5053222;28;20214;-67
2021/12/03 15:08:24;;;;;;;4.13;1.80;;;;;;;;;;5054094;28;20874;-67
2021/12/03 15:11:24;;;;;;;1.30;1.20;;;;;;;;;;5048673;28;20223;-67
2021/12/03 15:14:36;;;;;;;1.30;1.20;;;;;;;;;;5060901;28;20217;-67
2021/12/03 15:25:24;;;;;;;0.73;0.73;;;;;;;;;;5020317;28;20682;-67
2021/12/03 15:30:48;;;;;;;2.27;1.53;;;;;;;;;;5048146;28;20209;-66
2021/12/03 15:33:24;;;;;;;0.93;0.93;;;;;;;;;;5059433;28;20229;-67
2021/12/03 15:35:57;;;;;;;2.73;1.97;;;;;;;;;;5053870;28;20312;-67
2021/12/03 15:41:27;;;;;;;0.77;0.77;;;;;;;;;;5049112;28;20309;-67
2021/12/03 15:55:32;;;;;;;0.73;0.70;;;;;;;;;;5057101;28;20261;-66
2021/12/03 15:58:22;;;;;;;0.70;0.70;;;;;;;;;;5055750;28;20225;-67
2021/12/03 16:03:57;;;;;;;1.73;1.60;;;;;;;;;;5004547;28;20359;-67
2021/12/03 16:06:36;;;;;;;2.27;1.40;;;;;;;;;;4993719;28;20304;-67
2021/12/03 16:09:12;;;;;;;0.97;0.97;;;;;;;;;;5036909;28;20230;-67
2021/12/03 16:11:47;;;;;;;4.00;1.10;;;;;;;;;;5060243;28;20233;-67
2021/12/03 16:14:48;;;;;;;1.30;1.20;;;;;;;;;;5047944;28;20281;-67
2021/12/03 16:17:43;;;;;;;2.17;1.17;;;;;;;;;;5052012;28;20225;-68
2021/12/03 16:20:36;;;;;;;1.13;1.00;;;;;;;;;;5057805;28;20425;-68
2021/12/03 16:23:21;;;;;;;1.13;0.93;;;;;;;;;;5049139;28;20211;-68
2021/12/03 16:26:05;;;;;;;1.53;1.30;;;;;;;;;;5067113;28;20214;-67
2021/12/03 16:50:52;;;;;;;1.50;1.40;;;;;;;;;;5043988;28;20306;-67
2021/12/03 16:53:23;;;;;;;1.57;1.47;;;;;;;;;;5047038;28;21202;-66
2021/12/03 16:55:57;;;;;;;1.13;1.13;;;;;;;;;;5046262;28;20470;-67
2021/12/03 16:58:24;;;;;;;6.53;3.47;;;;;;;;;;5057046;28;20218;-67
2021/12/03 17:00:56;;;;;;;2.93;2.00;;;;;;;;;;5062082;28;20208;-67
2021/12/03 17:03:26;;;;;;;1.60;1.10;;;;;;;;;;5046883;28;20235;-67
2021/12/03 17:11:47;;;;;;;3.03;1.93;;;;;;;;;;5121139;27;20611;-68
2021/12/03 17:14:33;;;;;;;5.53;3.10;;;;;;;;;;5123111;27;20250;-68
2021/12/03 17:17:42;;;;;;;3.20;2.57;;;;;;;;;;5122694;27;20228;-68
2021/12/03 17:47:50;;;;;;;1.30;1.20;;;;;;;;;;5105902;27;20216;-68
2021/12/03 17:50:38;;;;;;;1.43;1.23;;;;;;;;;;5122155;27;20232;-68
2021/12/03 17:58:42;;;;;;;0.50;0.50;;;;;;;;;;5084759;27;20212;-68
2021/12/03 18:01:15;;;;;;;2.17;1.97;;;;;;;;;;5121321;27;20211;-68
2021/12/03 18:03:49;;;;;;;15.10;1.30;;;;;;;;;;5105842;28;20300;-68
2021/12/03 18:09:40;;;;;;;1.87;1.77;;;;;;;;;;5052199;28;20760;-68
2021/12/03 18:12:37;;;;;;;4.70;1.43;;;;;;;;;;5096726;28;20208;-67
2021/12/03 18:48:32;;;;;;;3.37;1.67;;;;;;;;;;5107447;28;20278;-67
2021/12/03 18:51:12;;;;;;;2.10;1.50;;;;;;;;;;5107427;28;20269;-67
2021/12/03 18:53:57;;;;;;;1.60;1.50;;;;;;;;;;5107426;28;20406;-68
2021/12/03 18:56:30;;;;;;;1.20;1.20;;;;;;;;;;5107412;28;20205;-67
2021/12/03 18:59:02;;;;;;;0.97;0.97;;;;;;;;;;5107606;28;20252;-67
2021/12/03 19:01:31;;;;;;;1.43;1.30;;;;;;;;;;5107437;28;20208;-67
2021/12/03 19:06:52;;;;;;;1.63;1.53;;;;;;;;;;5090969;28;20299;-67
2021/12/03 19:09:23;;;;;;;1.10;1.10;;;;;;;;;;5107074;28;20213;-67
2021/12/03 19:11:56;;;;;;;2.10;1.23;;;;;;;;;;5107476;28;20259;-66
2021/12/03 19:14:24;;;;;;;3.10;1.73;;;;;;;;;;5107168;28;20704;-67
2021/12/03 19:16:51;;;;;;;1.80;1.63;;;;;;;;;;5107002;28;20237;-66
2021/12/03 19:19:18;;;;;;;2.43;1.27;;;;;;;;;;5106922;28;20211;-66
2021/12/03 19:21:46;;;;;;;1.43;1.40;;;;;;;;;;5106950;28;20217;-67
2021/12/03 19:24:16;;;;;;;0.90;0.83;;;;;;;;;;5107034;28;20836;-67
2021/12/03 19:26:44;;;;;;;1.30;1.20;;;;;;;;;;5106898;28;20259;-66
2021/12/03 19:29:12;;;;;;;1.00;1.00;;;;;;;;;;5106887;28;20243;-67
2021/12/03 19:31:40;;;;;;;1.50;1.40;;;;;;;;;;5106517;28;20238;-67
2021/12/03 19:34:07;;;;;;;1.23;1.13;;;;;;;;;;5105604;28;20233;-67
2021/12/03 19:36:39;;;;;;;1.83;1.30;;;;;;;;;;5099162;28;20221;-67
2021/12/03 19:39:07;;;;;;;1.33;1.27;;;;;;;;;;5086357;28;20287;-67
2021/12/03 19:41:43;;;;;;;1.80;1.70;;;;;;;;;;5086433;28;20238;-67
2021/12/03 19:44:13;;;;;;;1.20;1.10;;;;;;;;;;5086175;28;20206;-67
2021/12/03 19:46:44;;;;;;;1.40;1.07;;;;;;;;;;5085971;28;20269;-67
2021/12/03 19:49:15;;;;;;;1.13;1.13;;;;;;;;;;5086181;28;20300;-65
2021/12/03 19:51:46;;;;;;;2.43;1.27;;;;;;;;;;5094638;28;20229;-66
2021/12/03 19:54:14;;;;;;;0.73;0.73;;;;;;;;;;5093080;28;20312;-66
2021/12/03 19:56:42;;;;;;;1.80;1.60;;;;;;;;;;5095784;28;20217;-66
2021/12/03 19:59:10;;;;;;;2.73;1.70;;;;;;;;;;5086030;28;20213;-65
2021/12/03 20:01:38;;;;;;;1.57;1.47;;;;;;;;;;5103830;28;20201;-68
2021/12/03 20:04:07;;;;;;;3.33;1.27;;;;;;;;;;5106389;28;20213;-67
2021/12/03 20:06:35;;;;;;;1.37;1.30;;;;;;;;;;5101985;28;20213;-67
2021/12/03 20:09:03;;;;;;;3.70;1.20;;;;;;;;;;5094679;28;20682;-67
2021/12/03 20:11:38;;;;;;;3.50;2.17;;;;;;;;;;5103692;28;20241;-67
2021/12/03 20:14:10;;;;;;;1.57;1.43;;;;;;;;;;5105853;28;20502;-67
2021/12/03 20:16:40;;;;;;;1.70;1.60;;;;;;;;;;5098583;28;20589;-69
2021/12/03 20:19:11;;;;;;;1.33;0.90;;;;;;;;;;5087026;28;20219;-68
2021/12/03 20:21:43;;;;;;;2.10;1.53;;;;;;;;;;5093280;28;20317;-70
2021/12/03 20:24:23;;;;;;;7.53;1.30;;;;;;;;;;5105971;28;20669;-69
2021/12/03 20:26:55;;;;;;;2.20;0.97;;;;;;;;;;5105545;28;20289;-69
2021/12/03 20:29:33;;;;;;;3.50;1.63;;;;;;;;;;5087444;28;20221;-68
2021/12/03 20:32:12;;;;;;;1.00;1.00;;;;;;;;;;5087347;28;20228;-68
2021/12/03 20:34:51;;;;;;;3.70;1.30;;;;;;;;;;5099267;27;20622;-66
2021/12/03 20:37:20;;;;;;;1.23;1.13;;;;;;;;;;5088185;28;20591;-68
2021/12/03 20:39:54;;;;;;;1.17;0.60;;;;;;;;;;5092865;28;20927;-68
2021/12/03 20:42:24;;;;;;;1.03;1.03;;;;;;;;;;5085820;28;20209;-68
2021/12/03 20:47:59;;;;;;;3.00;1.50;;;;;;;;;;5083642;28;20214;-68
2021/12/03 20:50:45;;;;;;;1.63;1.23;;;;;;;;;;5098835;28;20249;-68
2021/12/03 20:53:20;;;;;;;1.90;1.67;;;;;;;;;;5095904;28;20562;-68
2021/12/03 21:09:43;;;;;;;2.47;1.10;;;;;;;;;;5104997;28;20248;-71
2021/12/03 21:12:17;;;;;;;1.10;1.10;;;;;;;;;;5092688;28;20275;-71
2021/12/03 21:14:53;;;;;;;1.10;1.00;;;;;;;;;;5093716;28;20204;-67
2021/12/03 21:20:24;;;;;;;1.40;1.20;;;;;;;;;;5041612;28;20369;-67
2021/12/03 21:22:53;;;;;;;1.70;1.60;;;;;;;;;;5075908;28;20237;-68